createdAt,value
2018-07-12T00:02:07.024Z,19.83
2018-07-12T00:04:35.102Z,19.67
2018-07-12T00:07:02.954Z,20.57
2018-07-12T00:09:30.799Z,20.17
2018-07-12T00:11:58.645Z,20.63
2018-07-12T00:14:26.480Z,20.57
2018-07-12T00:16:54.337Z,20.37
2018-07-12T00:19:22.166Z,18.80
2018-07-12T00:21:50.028Z,19.30
2018-07-12T00:24:17.919Z,19.43
2018-07-12T00:26:45.799Z,21.40
2018-07-12T00:29:13.692Z,21.20
2018-07-12T00:31:41.623Z,25.20
2018-07-12T00:34:09.465Z,21.40
2018-07-12T00:36:37.285Z,24.70
2018-07-12T00:39:05.877Z,22.57
2018-07-12T00:41:33.738Z,27.80
2018-07-12T00:44:01.703Z,22.47
2018-07-12T00:46:29.543Z,23.03
2018-07-12T00:48:57.364Z,22.97
2018-07-12T00:51:25.459Z,23.27
2018-07-12T00:53:53.350Z,26.07
2018-07-12T00:56:21.203Z,24.23
2018-07-12T00:58:49.139Z,27.03
2018-07-12T01:01:16.953Z,24.63
2018-07-12T01:03:44.785Z,25.53
2018-07-12T01:06:12.725Z,25.10
2018-07-12T01:08:40.552Z,25.97
2018-07-12T01:11:08.401Z,25.23
2018-07-12T01:13:36.223Z,28.63
2018-07-12T01:16:04.070Z,25.80
2018-07-12T01:18:31.926Z,27.43
2018-07-12T01:20:59.747Z,27.50
2018-07-12T01:23:27.577Z,27.97
2018-07-12T01:25:55.879Z,28.17
2018-07-12T01:28:23.827Z,27.87
2018-07-12T01:30:51.649Z,27.80
2018-07-12T01:33:19.483Z,28.27
2018-07-12T01:35:47.299Z,28.67
2018-07-12T01:38:15.158Z,30.63
2018-07-12T01:40:42.967Z,27.87
2018-07-12T01:43:10.979Z,32.80
2018-07-12T01:45:38.892Z,32.13
2018-07-12T01:48:06.809Z,30.87
2018-07-12T01:50:34.746Z,32.17
2018-07-12T01:53:02.575Z,29.17
2018-07-12T01:55:30.419Z,31.70
2018-07-12T01:57:58.371Z,35.90
2018-07-12T02:00:26.419Z,30.47
2018-07-12T02:02:54.340Z,31.30
2018-07-12T02:05:22.187Z,30.47
2018-07-12T02:07:50.035Z,29.93
2018-07-12T02:10:17.897Z,29.73
2018-07-12T02:12:45.736Z,29.03
2018-07-12T02:15:13.575Z,29.30
2018-07-12T02:17:41.396Z,31.60
2018-07-12T02:20:09.227Z,29.00
2018-07-12T02:22:37.057Z,30.13
2018-07-12T02:25:04.918Z,31.40
2018-07-12T02:27:32.948Z,29.83
2018-07-12T02:30:00.850Z,30.13
2018-07-12T02:32:28.987Z,29.27
2018-07-12T02:34:57.252Z,31.87
2018-07-12T02:37:25.078Z,30.83
2018-07-12T02:39:52.899Z,31.73
2018-07-12T02:42:20.775Z,34.03
2018-07-12T02:44:48.683Z,34.37
2018-07-12T02:47:16.844Z,34.23
2018-07-12T02:49:44.763Z,33.60
2018-07-12T02:52:13.038Z,32.30
2018-07-12T02:54:40.962Z,33.90
2018-07-12T02:57:08.804Z,36.50
2018-07-12T02:59:36.634Z,33.73
2018-07-12T03:02:04.758Z,34.07
2018-07-12T03:04:32.593Z,38.33
2018-07-12T03:07:00.451Z,35.13
2018-07-12T03:09:28.275Z,36.17
2018-07-12T03:11:56.124Z,35.33
2018-07-12T03:14:23.990Z,34.90
2018-07-12T03:16:52.007Z,34.23
2018-07-12T03:19:19.848Z,35.20
2018-07-12T03:21:47.659Z,34.90
2018-07-12T03:24:15.650Z,35.30
2018-07-12T03:26:43.479Z,35.17
2018-07-12T03:29:11.371Z,33.40
2018-07-12T03:31:39.202Z,34.47
2018-07-12T03:34:07.584Z,38.13
2018-07-12T03:36:35.394Z,34.73
2018-07-12T03:39:03.415Z,36.20
